Time;durP1;ratioP1;P1;durP2;ratioP2;P2;SDS_P1;SDS_P2;PMS_P1;PMS_P2;Temp;Humidity;BMP_temperature;BMP_pressure;BME280_temperature;BME280_humidity;BME280_pressure;Samples;Min_cycle;Max_cycle;Signal;HPM_P1;HPM_P2
2023/04/01 00:04:42;;;;;;;3.60;2.90;;;23.00;60.10;;;;;;222533;1262;22503;-47
2023/04/01 00:09:47;;;;;;;4.70;3.30;;;23.00;60.40;;;;;;222352;1255;23134;-46
2023/04/01 00:14:51;;;;;;;4.80;3.20;;;22.90;60.00;;;;;;222647;1262;22632;-46
2023/04/01 00:19:56;;;;;;;3.40;3.10;;;23.00;60.00;;;;;;222527;1262;22518;-49
2023/04/01 00:25:00;;;;;;;3.40;3.00;;;23.00;60.00;;;;;;222467;1246;22656;-51
2023/04/01 00:30:06;;;;;;;4.80;2.90;;;23.10;59.80;;;;;;222567;1262;22514;-49
2023/04/01 00:35:10;;;;;;;3.20;2.90;;;23.10;59.60;;;;;;222382;1254;24090;-52
2023/04/01 00:40:31;;;;;;;3.00;2.30;;;23.20;59.50;;;;;;221902;1263;22756;-49
2023/04/01 00:45:38;;;;;;;3.60;3.00;;;23.30;59.40;;;;;;222104;1265;22510;-49
2023/04/01 00:50:48;;;;;;;3.60;2.70;;;23.30;59.60;;;;;;221987;1270;25454;-48
2023/04/01 00:56:07;;;;;;;4.00;2.90;;;23.30;59.30;;;;;;222092;1262;22539;-48
2023/04/01 01:01:11;;;;;;;2.80;2.60;;;23.20;59.40;;;;;;221932;1255;22615;-47
2023/04/01 01:06:38;;;;;;;3.30;2.90;;;23.00;60.00;;;;;;221981;1264;22622;-50
2023/04/01 01:11:46;;;;;;;2.70;2.40;;;23.10;59.90;;;;;;222103;1270;22623;-50
2023/04/01 01:17:01;;;;;;;3.00;2.70;;;23.10;60.30;;;;;;222146;1262;25390;-47
2023/04/01 01:22:36;;;;;;;4.30;3.00;;;23.00;59.90;;;;;;222293;1262;23144;-47
2023/04/01 01:27:45;;;;;;;2.80;2.60;;;22.90;60.00;;;;;;222199;1262;22505;-55
2023/04/01 01:32:52;;;;;;;2.90;2.60;;;23.00;59.70;;;;;;222000;1262;22518;-46
2023/04/01 01:38:01;;;;;;;3.50;2.80;;;23.00;59.60;;;;;;222413;1256;22548;-46
2023/04/01 01:43:11;;;;;;;3.40;2.70;;;22.80;60.00;;;;;;222463;1261;24357;-46
2023/04/01 01:48:17;;;;;;;3.00;2.70;;;22.70;60.50;;;;;;222496;1262;22505;-48
2023/04/01 01:53:21;;;;;;;3.10;2.50;;;22.60;60.70;;;;;;222528;1255;23894;-45
2023/04/01 01:58:40;;;;;;;3.00;2.40;;;22.60;60.30;;;;;;222529;1256;25384;-49
2023/04/01 02:03:48;;;;;;;2.60;2.40;;;22.60;60.90;;;;;;222264;1256;22638;-51
2023/04/01 02:09:03;;;;;;;3.20;2.20;;;22.50;61.20;;;;;;222465;1256;25201;-47
2023/04/01 02:14:06;;;;;;;;;;;22.50;60.90;;;;;;222278;1255;24886;-50
2023/04/01 02:19:13;;;;;;;3.50;2.20;;;22.40;60.80;;;;;;222478;1265;22513;-49
2023/04/01 02:24:21;;;;;;;2.90;2.00;;;22.40;60.80;;;;;;222336;1263;22640;-48
2023/04/01 02:29:25;;;;;;;2.00;1.90;;;22.30;61.00;;;;;;222303;1253;25460;-47
2023/04/01 02:34:29;;;;;;;2.70;2.40;;;22.20;61.00;;;;;;222191;1265;22513;-52
2023/04/01 02:39:35;;;;;;;2.60;2.40;;;22.20;61.20;;;;;;222184;1256;22513;-45
2023/04/01 02:44:39;;;;;;;3.20;2.50;;;22.10;61.70;;;;;;221996;1265;22508;-49
2023/04/01 02:49:43;;;;;;;2.90;2.10;;;22.10;61.20;;;;;;222781;1256;22733;-45
2023/04/01 02:54:47;;;;;;;2.30;2.20;;;22.10;61.10;;;;;;221920;1262;26619;-46
2023/04/01 02:59:52;;;;;;;3.50;1.90;;;22.10;61.30;;;;;;222417;1263;22639;-48
2023/04/01 03:04:56;;;;;;;2.30;2.10;;;22.00;61.30;;;;;;222258;1263;22507;-54
2023/04/01 03:10:00;;;;;;;2.10;1.90;;;22.00;61.40;;;;;;222387;1262;22520;-52
2023/04/01 03:15:05;;;;;;;2.30;1.80;;;22.00;61.40;;;;;;222215;1255;22653;-47
2023/04/01 03:20:15;;;;;;;2.80;2.10;;;22.00;61.60;;;;;;222241;1254;26691;-50
2023/04/01 03:25:20;;;;;;;2.00;1.80;;;21.90;61.50;;;;;;222152;1263;26501;-48
2023/04/01 03:30:23;;;;;;;3.10;2.20;;;22.00;61.60;;;;;;222391;1267;22531;-47
2023/04/01 03:35:28;;;;;;;2.20;1.90;;;21.90;62.00;;;;;;222642;1265;25418;-45
2023/04/01 03:40:32;;;;;;;2.00;1.80;;;21.90;61.60;;;;;;222244;1246;24081;-46
2023/04/01 03:45:47;;;;;;;2.70;1.90;;;21.90;61.60;;;;;;222416;1262;22529;-49
2023/04/01 03:50:51;;;;;;;2.80;2.10;;;21.80;61.90;;;;;;222318;1265;24183;-47
2023/04/01 03:55:56;;;;;;;2.20;2.00;;;21.80;61.50;;;;;;222484;1265;24409;-50
2023/04/01 04:01:00;;;;;;;2.70;1.90;;;22.10;61.40;;;;;;222326;1256;22728;-54
2023/04/01 04:06:05;;;;;;;2.10;1.70;;;22.40;60.80;;;;;;222306;1265;24250;-46
2023/04/01 04:11:10;;;;;;;1.90;1.40;;;22.60;60.70;;;;;;222219;1256;23908;-47
2023/04/01 04:16:17;;;;;;;2.80;1.90;;;22.70;59.40;;;;;;222395;1255;22602;-47
2023/04/01 04:21:29;;;;;;;1.80;1.60;;;22.80;59.10;;;;;;222084;1265;22515;-46
2023/04/01 04:26:33;;;;;;;1.80;1.60;;;22.90;59.10;;;;;;222224;1265;24410;-52
2023/04/01 04:31:37;;;;;;;1.80;1.40;;;22.90;59.10;;;;;;222492;1262;25397;-48
2023/04/01 04:36:43;;;;;;;1.50;1.40;;;22.90;59.00;;;;;;222481;1254;22575;-51
2023/04/01 04:41:47;;;;;;;1.70;1.60;;;23.00;58.20;;;;;;222586;1265;25317;-50
2023/04/01 04:46:52;;;;;;;1.90;1.60;;;23.10;58.90;;;;;;222221;1269;24369;-49
2023/04/01 04:51:56;;;;;;;1.50;1.40;;;23.10;58.30;;;;;;222558;1262;25350;-47
2023/04/01 04:57:01;;;;;;;1.80;1.70;;;23.20;58.20;;;;;;222139;1262;22567;-54
2023/04/01 05:02:08;;;;;;;3.50;1.70;;;23.30;58.40;;;;;;222567;1256;24950;-48
2023/04/01 05:07:13;;;;;;;1.80;1.60;;;23.40;58.00;;;;;;222458;1269;22515;-53
2023/04/01 05:12:17;;;;;;;1.50;1.40;;;23.40;58.00;;;;;;222094;1264;22516;-48
2023/04/01 05:17:38;;;;;;;1.60;1.50;;;23.50;57.60;;;;;;222373;1269;25495;-50
2023/04/01 05:22:43;;;;;;;2.10;1.50;;;23.40;57.50;;;;;;222457;1254;23011;-47
2023/04/01 05:27:47;;;;;;;2.80;1.70;;;23.40;57.60;;;;;;222402;1263;22523;-49
2023/04/01 05:32:51;;;;;;;2.10;1.70;;;23.30;57.90;;;;;;222462;1262;22667;-46
2023/04/01 05:37:55;;;;;;;1.70;1.60;;;23.30;57.90;;;;;;222152;1256;24246;-47
2023/04/01 05:43:00;;;;;;;1.40;1.30;;;23.30;57.70;;;;;;222474;1256;22508;-51
2023/04/01 05:48:05;;;;;;;2.00;1.50;;;23.30;57.70;;;;;;222428;1263;25215;-47
2023/04/01 05:53:13;;;;;;;1.60;1.40;;;23.10;58.00;;;;;;222397;1256;22663;-52
2023/04/01 05:58:18;;;;;;;1.10;1.10;;;23.00;57.80;;;;;;222396;1261;22651;-47
2023/04/01 06:03:22;;;;;;;1.30;1.20;;;23.10;57.80;;;;;;222337;1256;25351;-52
2023/04/01 06:08:30;;;;;;;1.30;1.20;;;23.00;58.10;;;;;;222290;1264;22513;-45
2023/04/01 06:13:47;;;;;;;1.30;1.20;;;22.90;59.00;;;;;;222451;1262;22515;-52
2023/04/01 06:19:13;;;;;;;1.40;1.30;;;22.80;59.40;;;;;;222280;1259;22516;-49
2023/04/01 06:24:50;;;;;;;1.70;1.30;;;22.70;58.10;;;;;;222499;1264;22635;-48
2023/04/01 06:30:33;;;;;;;1.60;1.50;;;22.60;58.40;;;;;;222324;1256;142503;-51
2023/04/01 06:36:03;;;;;;;2.10;1.20;;;22.60;58.50;;;;;;220926;1269;24234;-50
2023/04/01 06:41:27;;;;;;;1.30;1.20;;;22.50;58.50;;;;;;221281;1263;26606;-50
2023/04/01 06:46:52;;;;;;;1.40;1.00;;;22.50;58.50;;;;;;221276;1269;24230;-46
2023/04/01 06:52:36;;;;;;;1.80;1.30;;;22.50;58.80;;;;;;221163;1260;22504;-48
2023/04/01 06:58:19;;;;;;;1.40;1.30;;;22.40;58.70;;;;;;221282;1271;22631;-46
2023/04/01 07:03:34;;;;;;;1.30;1.10;;;22.40;58.60;;;;;;221384;1270;22520;-61
2023/04/01 07:08:43;;;;;;;2.00;1.20;;;22.40;59.10;;;;;;222022;1246;22504;-53
2023/04/01 07:14:22;;;;;;;1.50;0.90;;;22.30;58.70;;;;;;222234;1257;24149;-54
2023/04/01 07:19:42;;;;;;;1.50;1.00;;;22.30;58.30;;;;;;222568;1263;22516;-60
2023/04/01 07:24:47;;;;;;;2.20;1.10;;;22.30;59.00;;;;;;222332;1264;24243;-53
2023/04/01 07:29:51;;;;;;;2.60;1.30;;;22.30;58.80;;;;;;222183;1256;22565;-59
2023/04/01 07:35:08;;;;;;;1.80;1.10;;;22.30;59.20;;;;;;222185;1263;26610;-56
2023/04/01 07:40:18;;;;;;;5.70;1.20;;;22.30;59.00;;;;;;222393;1262;22542;-51
2023/04/01 07:45:43;;;;;;;3.90;1.10;;;22.20;59.50;;;;;;222228;1268;25228;-51
2023/04/01 07:50:54;;;;;;;7.50;0.90;;;22.20;58.60;;;;;;222281;1263;24391;-48
2023/04/01 07:56:08;;;;;;;2.10;1.10;;;22.20;58.70;;;;;;222300;1262;22512;-49
2023/04/01 08:01:44;;;;;;;1.50;1.10;;;22.20;58.70;;;;;;222232;1256;24190;-47
2023/04/01 08:07:08;;;;;;;1.40;1.20;;;22.30;58.80;;;;;;222277;1260;22638;-48
2023/04/01 08:12:36;;;;;;;2.00;1.30;;;22.20;58.80;;;;;;222090;1261;22758;-47
2023/04/01 08:18:09;;;;;;;3.70;1.20;;;22.20;59.00;;;;;;221647;1262;22634;-49
2023/04/01 08:23:36;;;;;;;1.50;1.30;;;22.10;59.00;;;;;;222118;1263;24245;-50
2023/04/01 08:29:07;;;;;;;4.90;1.60;;;22.00;59.10;;;;;;222333;1263;22532;-48
2023/04/01 08:34:18;;;;;;;4.30;1.30;;;22.30;62.40;;;;;;222351;1262;24296;-47
2023/04/01 08:39:38;;;;;;;3.50;1.70;;;22.30;63.20;;;;;;221884;1266;24340;-48
2023/04/01 08:45:00;;;;;;;4.70;1.20;;;22.30;63.30;;;;;;222638;1269;26504;-48
2023/04/01 08:50:18;;;;;;;8.40;2.00;;;22.20;63.40;;;;;;222096;1261;22990;-51
2023/04/01 08:55:46;;;;;;;7.90;2.40;;;22.10;64.50;;;;;;222378;1263;22538;-50
2023/04/01 09:01:10;;;;;;;12.50;2.00;;;22.30;65.20;;;;;;222389;1262;22505;-54
2023/04/01 09:06:51;;;;;;;10.80;2.40;;;22.20;65.50;;;;;;222099;1264;26616;-56
2023/04/01 09:12:24;;;;;;;7.60;2.30;;;22.20;64.90;;;;;;222332;1269;22513;-45
2023/04/01 09:17:47;;;;;;;24.20;2.90;;;22.40;64.90;;;;;;222248;1263;22602;-45
2023/04/01 09:23:47;;;;;;;5.90;2.20;;;22.40;64.70;;;;;;222256;1264;22529;-45
2023/04/01 09:29:17;;;;;;;5.60;2.00;;;22.20;64.30;;;;;;220900;1276;24268;-52
2023/04/01 09:34:40;;;;;;;7.90;2.00;;;22.10;64.90;;;;;;220989;1271;22514;-45
2023/04/01 09:40:14;;;;;;;7.50;2.20;;;22.00;64.80;;;;;;221118;1261;23225;-43
2023/04/01 09:45:46;;;;;;;13.30;2.20;;;22.00;64.60;;;;;;221297;1272;24677;-46
2023/04/01 09:51:24;;;;;;;13.10;2.00;;;22.00;64.80;;;;;;221835;1263;25332;-46
2023/04/01 09:56:51;;;;;;;11.90;1.80;;;22.10;64.50;;;;;;222640;1266;22521;-51
2023/04/01 10:02:20;;;;;;;9.70;2.20;;;22.00;64.70;;;;;;222533;1254;24180;-50
2023/04/01 10:07:53;;;;;;;19.60;2.00;;;22.10;64.00;;;;;;222594;1262;25485;-46
2023/04/01 10:13:26;;;;;;;14.90;2.20;;;22.10;63.70;;;;;;222412;1263;22515;-49
2023/04/01 10:18:59;;;;;;;18.60;2.30;;;22.20;63.80;;;;;;222797;1263;25319;-51
2023/04/01 10:24:09;;;;;;;26.90;4.70;;;22.40;63.50;;;;;;222637;1269;22521;-49
2023/04/01 10:29:30;;;;;;;35.50;12.70;;;22.40;63.40;;;;;;222520;1255;24237;-43
2023/04/01 10:35:02;;;;;;;61.20;23.70;;;22.30;62.90;;;;;;223556;1263;22752;-45
2023/04/01 10:40:35;;;;;;;59.70;25.60;;;22.20;62.80;;;;;;226225;1262;22515;-43
2023/04/01 10:46:00;;;;;;;65.10;26.60;;;22.10;63.30;;;;;;222750;1256;22626;-53
2023/04/01 10:51:23;;;;;;;106.80;29.90;;;22.00;63.20;;;;;;222573;1258;24187;-46
2023/04/01 10:56:30;;;;;;;;;;;21.90;63.70;;;;;;222425;1269;25440;-45
2023/04/01 11:01:55;;;;;;;86.70;26.50;;;22.00;64.40;;;;;;222446;1263;22509;-53
2023/04/01 11:07:56;;;;;;;69.00;24.60;;;22.20;64.30;;;;;;222244;1269;24269;-53
2023/04/01 11:13:39;;;;;;;68.50;24.90;;;22.20;63.90;;;;;;222102;1263;25231;-45
2023/04/01 11:26:29;;;;;;;61.80;23.90;;;22.30;63.60;;;;;;222637;1260;25316;-42
2023/04/01 11:32:45;;;;;;;62.10;24.60;;;22.20;64.50;;;;;;222261;1255;22569;-46
2023/04/01 11:38:06;;;;;;;63.90;22.70;;;22.30;65.10;;;;;;222638;1269;22868;-39
2023/04/01 11:43:38;;;;;;;60.80;23.00;;;22.30;66.60;;;;;;222401;1256;23879;-41
2023/04/01 11:49:16;;;;;;;48.20;19.90;;;22.20;67.30;;;;;;222526;1262;24186;-44
2023/04/01 11:55:00;;;;;;;61.40;21.00;;;22.10;67.10;;;;;;222539;1269;22519;-38
2023/04/01 12:00:34;;;;;;;48.20;19.90;;;22.20;68.10;;;;;;222819;1264;25397;-43
2023/04/01 12:05:52;;;;;;;46.50;19.50;;;22.10;68.60;;;;;;222880;1266;22920;-42
2023/04/01 12:11:08;;;;;;;51.90;19.60;;;22.10;68.70;;;;;;223036;1264;25213;-40
2023/04/01 12:16:36;;;;;;;52.40;18.00;;;22.10;67.90;;;;;;222713;1255;24342;-43
2023/04/01 12:21:43;;;;;;;41.40;17.70;;;22.00;67.90;;;;;;222987;1262;22845;-44
2023/04/01 12:27:05;;;;;;;38.80;16.30;;;22.00;68.30;;;;;;222609;1262;22529;-56
2023/04/01 12:32:15;;;;;;;37.40;16.50;;;22.10;67.30;;;;;;222329;1269;22608;-57
2023/04/01 12:37:57;;;;;;;38.40;16.90;;;22.00;67.70;;;;;;222337;1268;22595;-61
2023/04/01 12:43:20;;;;;;;;;;;22.00;67.30;;;;;;222342;1267;24324;-62
2023/04/01 12:48:36;;;;;;;35.20;15.00;;;22.00;67.40;;;;;;222694;1254;22519;-63
2023/04/01 12:53:46;;;;;;;33.40;14.90;;;22.10;67.90;;;;;;222301;1260;23861;-60
2023/04/01 12:59:23;;;;;;;36.10;13.70;;;22.10;67.20;;;;;;222256;1260;22537;-54
2023/04/01 13:04:57;;;;;;;38.00;15.00;;;22.20;67.10;;;;;;222115;1263;25873;-53
2023/04/01 13:10:34;;;;;;;26.20;13.00;;;22.40;66.40;;;;;;222296;1264;22519;-52
2023/04/01 13:16:06;;;;;;;26.40;12.30;;;22.40;66.40;;;;;;222061;1269;22521;-53
2023/04/01 13:21:29;;;;;;;27.80;13.00;;;22.50;66.20;;;;;;222164;1256;24218;-54
2023/04/01 13:26:56;;;;;;;30.60;11.80;;;22.50;65.60;;;;;;222078;1254;25227;-55
2023/04/01 13:32:18;;;;;;;26.90;12.10;;;22.60;65.70;;;;;;222197;1261;22772;-54
2023/04/01 13:37:31;;;;;;;25.10;11.70;;;22.60;65.40;;;;;;222613;1260;24192;-54
2023/04/01 13:43:24;;;;;;;23.90;11.40;;;22.40;65.60;;;;;;222374;1245;25265;-56
2023/04/01 13:48:29;;;;;;;26.20;11.40;;;22.40;66.00;;;;;;222182;1264;22526;-57
2023/04/01 13:53:53;;;;;;;23.40;10.60;;;22.40;66.20;;;;;;222084;1264;22517;-56
2023/04/01 13:59:24;;;;;;;23.00;9.70;;;22.40;65.90;;;;;;223148;1267;25295;-58
2023/04/01 14:04:48;;;;;;;24.40;10.10;;;22.40;65.80;;;;;;226695;1254;25256;-57
2023/04/01 14:10:06;;;;;;;18.70;9.40;;;22.60;65.20;;;;;;222443;1254;24962;-56
2023/04/01 14:15:41;;;;;;;25.30;10.20;;;22.50;65.50;;;;;;222412;1258;24191;-55
2023/04/01 14:21:13;;;;;;;17.30;8.80;;;22.40;66.20;;;;;;222298;1262;25462;-58
2023/04/01 14:26:52;;;;;;;17.20;9.20;;;22.40;66.10;;;;;;222326;1260;22571;-56
2023/04/01 14:32:06;;;;;;;19.80;8.90;;;22.40;66.20;;;;;;222488;1260;24913;-56
2023/04/01 14:37:25;;;;;;;15.00;8.50;;;22.30;65.80;;;;;;222536;1261;24229;-57
2023/04/01 14:43:07;;;;;;;15.60;8.40;;;22.30;65.70;;;;;;222461;1261;22821;-60
2023/04/01 14:48:33;;;;;;;15.30;8.30;;;22.30;65.10;;;;;;222522;1262;22530;-57
2023/04/01 14:53:45;;;;;;;21.20;8.70;;;22.30;65.70;;;;;;222350;1255;22518;-62
2023/04/01 14:58:58;;;;;;;14.10;7.20;;;22.20;66.20;;;;;;222401;1261;23894;-53
2023/04/01 15:04:30;;;;;;;17.80;8.20;;;22.20;66.00;;;;;;222484;1247;22806;-57
2023/04/01 15:10:01;;;;;;;17.40;7.30;;;22.20;65.60;;;;;;222541;1257;25268;-52
2023/04/01 15:15:26;;;;;;;15.50;8.20;;;22.10;65.60;;;;;;222542;1264;24218;-59
2023/04/01 15:20:43;;;;;;;17.00;6.70;;;22.00;66.60;;;;;;222719;1246;22508;-51
2023/04/01 15:26:09;;;;;;;15.30;7.60;;;22.00;66.50;;;;;;222339;1254;22518;-55
2023/04/01 15:31:37;;;;;;;9.70;6.10;;;22.00;67.00;;;;;;222449;1267;22517;-52
2023/04/01 15:36:57;;;;;;;11.90;6.70;;;21.90;67.70;;;;;;222242;1254;22719;-50
2023/04/01 15:42:22;;;;;;;13.70;6.70;;;21.90;67.50;;;;;;222262;1262;22556;-54
2023/04/01 15:47:35;;;;;;;18.80;8.00;;;21.90;67.10;;;;;;222346;1254;22561;-50
2023/04/01 15:52:50;;;;;;;16.90;7.10;;;22.20;67.00;;;;;;222287;1259;22801;-53
2023/04/01 15:58:23;;;;;;;13.30;6.80;;;22.10;65.40;;;;;;222367;1269;22526;-49
2023/04/01 16:03:41;;;;;;;14.20;6.00;;;22.00;66.60;;;;;;222300;1254;23879;-50
2023/04/01 16:08:56;;;;;;;10.90;5.60;;;21.90;67.10;;;;;;222501;1262;23163;-50
2023/04/01 16:14:17;;;;;;;9.60;5.70;;;21.90;67.30;;;;;;222607;1265;24216;-46
2023/04/01 16:19:36;;;;;;;10.60;6.00;;;21.80;67.20;;;;;;222505;1254;22531;-51
2023/04/01 16:24:56;;;;;;;12.20;5.70;;;21.90;67.40;;;;;;222455;1262;23094;-56
2023/04/01 16:30:21;;;;;;;16.10;5.60;;;22.00;67.10;;;;;;222050;1262;22945;-54
2023/04/01 16:35:29;;;;;;;8.60;5.70;;;22.20;66.90;;;;;;222398;1262;22729;-61
2023/04/01 16:41:12;;;;;;;7.90;5.30;;;22.20;66.50;;;;;;222671;1262;25225;-62
2023/04/01 16:46:40;;;;;;;7.50;4.90;;;22.20;66.30;;;;;;221891;1269;24160;-54
2023/04/01 17:05:08;;;;;;;9.40;5.50;;;22.00;66.00;;;;;;222433;1264;22504;-50
2023/04/01 17:10:49;;;;;;;9.10;5.60;;;21.90;65.80;;;;;;222548;1255;23917;-42
2023/04/01 17:16:25;;;;;;;9.10;5.70;;;21.90;65.80;;;;;;222534;1261;22514;-46
2023/04/01 17:22:16;;;;;;;8.80;5.40;;;21.90;65.80;;;;;;222302;1255;22556;-51
2023/04/01 17:27:34;;;;;;;7.60;5.10;;;21.90;66.40;;;;;;222181;1261;24222;-49
2023/04/01 17:47:20;;;;;;;9.70;5.60;;;22.00;65.10;;;;;;222441;1261;23931;-63
2023/04/01 17:53:28;;;;;;;10.90;5.00;;;22.00;64.90;;;;;;222438;1258;25290;-54
2023/04/01 17:59:22;;;;;;;9.00;4.60;;;22.10;65.40;;;;;;222706;1254;25214;-51
2023/04/01 18:05:23;;;;;;;10.20;5.10;;;22.00;65.40;;;;;;220309;1273;24213;-58
2023/04/01 18:10:46;;;;;;;11.90;5.40;;;22.20;65.00;;;;;;220267;1265;22610;-60
2023/04/01 18:16:00;;;;;;;7.20;4.90;;;22.20;65.00;;;;;;220360;1273;25325;-63
2023/04/01 18:21:23;;;;;;;6.70;4.80;;;22.20;64.50;;;;;;220410;1271;22989;-56
2023/04/01 18:26:37;;;;;;;12.00;4.70;;;22.10;64.20;;;;;;219256;1280;460119;-60
2023/04/01 18:32:01;;;;;;;8.90;5.90;;;22.10;64.20;;;;;;219624;1280;22551;-63
2023/04/01 18:37:32;;;;;;;10.40;5.30;;;22.00;64.60;;;;;;219657;1283;25507;-63
2023/04/01 18:43:10;;;;;;;8.70;5.20;;;22.10;64.90;;;;;;220418;1263;24227;-60
2023/04/01 18:48:49;;;;;;;9.20;5.80;;;22.10;64.00;;;;;;220576;1272;24206;-57
2023/04/01 18:54:10;;;;;;;8.40;5.70;;;22.10;64.40;;;;;;220684;1270;22542;-59
2023/04/01 19:00:02;;;;;;;8.60;5.90;;;22.20;64.50;;;;;;221409;1262;26449;-56
2023/04/01 19:05:23;;;;;;;8.30;6.10;;;22.10;64.30;;;;;;221126;1268;22599;-55
2023/04/01 19:10:33;;;;;;;10.40;5.80;;;22.10;64.20;;;;;;222318;1270;22531;-54
2023/04/01 19:16:03;;;;;;;41.90;19.60;;;22.10;64.00;;;;;;221437;1268;24262;-54
2023/04/01 19:21:38;;;;;;;52.70;24.30;;;22.10;63.90;;;;;;221208;1269;22642;-58
2023/04/01 19:26:59;;;;;;;93.40;33.20;;;22.10;63.80;;;;;;221242;1268;24381;-52
2023/04/01 19:32:14;;;;;;;92.30;42.10;;;22.00;64.20;;;;;;221212;1264;24187;-58
2023/04/01 19:37:44;;;;;;;75.20;32.90;;;22.00;63.60;;;;;;221216;1270;25553;-54
2023/04/01 19:43:18;;;;;;;76.40;33.80;;;21.90;63.80;;;;;;222128;1255;22518;-53
2023/04/01 19:48:46;;;;;;;69.10;32.10;;;21.90;63.40;;;;;;222287;1267;22515;-54
2023/04/01 19:53:59;;;;;;;68.60;31.20;;;21.80;63.60;;;;;;221920;1267;22756;-52
2023/04/01 19:59:20;;;;;;;66.80;30.80;;;21.80;63.20;;;;;;222256;1256;24462;-51
2023/04/01 20:04:48;;;;;;;69.60;30.60;;;21.80;63.20;;;;;;222279;1262;24240;-54
2023/04/01 20:10:31;;;;;;;64.50;30.10;;;21.90;63.60;;;;;;222256;1251;25377;-54
2023/04/01 20:15:55;;;;;;;59.60;26.60;;;21.90;63.40;;;;;;222216;1266;24069;-54
2023/04/01 20:21:17;;;;;;;51.50;25.30;;;21.90;63.80;;;;;;222274;1265;24579;-53
2023/04/01 20:26:31;;;;;;;49.30;23.50;;;22.10;63.30;;;;;;222374;1262;22526;-50
2023/04/01 20:31:47;;;;;;;42.60;22.30;;;22.30;63.40;;;;;;222283;1255;27848;-52
2023/04/01 20:37:12;;;;;;;43.20;21.30;;;22.60;64.50;;;;;;222143;1258;22514;-52
2023/04/01 20:42:47;;;;;;;38.30;19.10;;;22.90;63.00;;;;;;222504;1255;25215;-48
2023/04/01 20:47:59;;;;;;;40.90;20.30;;;22.80;62.80;;;;;;222363;1256;24170;-52
2023/04/01 20:53:13;;;;;;;35.40;18.50;;;23.10;62.30;;;;;;222551;1262;22474;-61
2023/04/01 20:58:38;;;;;;;37.50;19.40;;;23.10;62.50;;;;;;222489;1256;24366;-57
2023/04/01 21:03:51;;;;;;;36.00;17.80;;;23.20;63.00;;;;;;222356;1255;22521;-58
2023/04/01 21:09:30;;;;;;;36.80;18.80;;;23.40;63.40;;;;;;222447;1256;22809;-56
2023/04/01 21:15:18;;;;;;;36.10;18.50;;;23.50;63.70;;;;;;222157;1262;24316;-59
2023/04/01 21:20:49;;;;;;;32.60;18.50;;;23.60;64.10;;;;;;220784;1270;22527;-58
2023/04/01 21:26:12;;;;;;;31.30;18.00;;;23.60;65.10;;;;;;220832;1264;24050;-59
2023/04/01 21:31:23;;;;;;;30.90;17.10;;;23.50;64.50;;;;;;220873;1270;24199;-55
2023/04/01 21:37:06;;;;;;;34.40;18.00;;;23.40;64.60;;;;;;220108;1280;25941;-56
2023/04/01 21:42:40;;;;;;;27.90;16.40;;;23.30;64.90;;;;;;219825;1270;25519;-60
2023/04/01 21:47:47;;;;;;;29.70;17.10;;;23.10;65.60;;;;;;219885;1277;24240;-56
2023/04/01 21:53:31;;;;;;;32.70;17.70;;;23.00;65.90;;;;;;220339;1269;25347;-59
2023/04/01 21:58:41;;;;;;;26.60;16.80;;;22.90;66.00;;;;;;221444;1262;25643;-61
2023/04/01 22:03:54;;;;;;;30.60;18.40;;;22.80;66.60;;;;;;222395;1261;22992;-58
2023/04/01 22:09:18;;;;;;;26.00;16.90;;;22.80;66.90;;;;;;222133;1262;22801;-59
2023/04/01 22:14:32;;;;;;;29.20;17.30;;;22.80;66.50;;;;;;222150;1262;22982;-54
2023/04/01 22:20:09;;;;;;;25.10;15.70;;;22.80;66.70;;;;;;222413;1265;22566;-60
2023/04/01 22:25:36;;;;;;;25.20;16.30;;;22.80;66.30;;;;;;222174;1256;22623;-56
2023/04/01 22:30:48;;;;;;;23.90;15.40;;;22.70;66.20;;;;;;230093;1265;22116;-56
2023/04/01 22:35:54;;;;;;;30.50;16.10;;;22.70;66.10;;;;;;227170;1262;22529;-56
2023/04/01 22:41:08;;;;;;;22.40;14.50;;;22.80;65.90;;;;;;223003;1256;22537;-58
2023/04/01 22:46:44;;;;;;;22.80;14.60;;;22.70;66.00;;;;;;222394;1262;22507;-53
2023/04/01 22:51:57;;;;;;;23.10;14.00;;;22.60;66.00;;;;;;222425;1257;24331;-56
2023/04/01 22:57:11;;;;;;;24.00;14.20;;;22.60;66.50;;;;;;222394;1253;25443;-59
2023/04/01 23:02:23;;;;;;;22.20;13.90;;;22.60;65.60;;;;;;222416;1256;25448;-56
2023/04/01 23:07:36;;;;;;;20.10;13.10;;;22.60;65.70;;;;;;222428;1254;24286;-62
2023/04/01 23:12:41;;;;;;;20.20;13.00;;;22.50;65.60;;;;;;222107;1258;22538;-59
2023/04/01 23:18:12;;;;;;;22.20;13.50;;;22.50;66.10;;;;;;222518;1256;23227;-45
2023/04/01 23:23:27;;;;;;;19.60;13.60;;;22.50;66.60;;;;;;222599;1249;24526;-40
2023/04/01 23:28:31;;;;;;;21.50;13.70;;;22.40;65.90;;;;;;222670;1262;25409;-42
2023/04/01 23:33:35;;;;;;;22.10;12.40;;;22.40;66.30;;;;;;222827;1262;22510;-43
2023/04/01 23:38:42;;;;;;;19.90;12.10;;;22.50;65.90;;;;;;222472;1261;23921;-47
2023/04/01 23:43:53;;;;;;;19.10;12.30;;;22.50;65.70;;;;;;222297;1265;23922;-45
2023/04/01 23:48:57;;;;;;;18.50;12.60;;;22.40;65.70;;;;;;222106;1254;24671;-42
2023/04/01 23:54:03;;;;;;;17.30;12.60;;;22.40;65.60;;;;;;222165;1264;22634;-43
2023/04/01 23:59:18;;;;;;;18.60;12.00;;;22.20;65.70;;;;;;222124;1261;22592;-42
